createdAt,value
2019-01-25T00:03:20.339Z,50.60
2019-01-25T00:05:49.132Z,49.63
2019-01-25T00:08:17.742Z,46.37
2019-01-25T00:10:46.414Z,45.28
2019-01-25T00:13:15.044Z,49.85
2019-01-25T00:15:43.690Z,45.08
2019-01-25T00:18:12.341Z,49.18
2019-01-25T00:20:41.094Z,47.95
2019-01-25T00:23:09.785Z,55.75
2019-01-25T00:25:38.426Z,52.43
2019-01-25T00:28:07.145Z,57.03
2019-01-25T00:30:35.828Z,52.73
2019-01-25T00:33:04.484Z,49.27
2019-01-25T00:35:33.194Z,49.10
2019-01-25T00:38:01.832Z,50.10
2019-01-25T00:40:30.437Z,50.98
2019-01-25T00:42:59.145Z,61.58
2019-01-25T00:45:27.772Z,50.00
2019-01-25T00:47:56.554Z,50.75
2019-01-25T00:50:25.235Z,55.35
2019-01-25T00:52:54.101Z,48.60
2019-01-25T00:55:22.792Z,49.70
2019-01-25T00:57:51.492Z,51.53
2019-01-25T01:00:22.360Z,55.73
2019-01-25T01:02:51.258Z,46.10
2019-01-25T01:05:20.629Z,47.40
2019-01-25T01:10:25.588Z,53.83
2019-01-25T01:12:54.266Z,53.25
2019-01-25T01:15:22.961Z,52.58
2019-01-25T01:17:51.721Z,56.28
2019-01-25T01:20:20.992Z,59.40
2019-01-25T01:25:44.432Z,52.88
2019-01-25T01:28:13.124Z,50.55
2019-01-25T01:30:41.746Z,49.35
2019-01-25T01:33:10.494Z,48.90
2019-01-25T01:35:39.298Z,46.70
2019-01-25T01:38:08.118Z,45.28
2019-01-25T01:40:36.832Z,44.10
2019-01-25T01:43:45.258Z,37.98
2019-01-25T01:46:13.935Z,43.75
2019-01-25T01:48:42.635Z,41.00
2019-01-25T01:51:11.356Z,46.68
2019-01-25T01:53:40.114Z,47.78
2019-01-25T01:56:08.741Z,48.42
2019-01-25T01:58:37.401Z,45.78
2019-01-25T02:01:06.085Z,47.88
2019-01-25T02:03:34.778Z,48.60
2019-01-25T02:06:03.500Z,42.55
2019-01-25T02:08:32.186Z,49.58
2019-01-25T02:11:00.828Z,47.80
2019-01-25T02:13:29.574Z,50.43
2019-01-25T02:15:58.303Z,44.80
2019-01-25T02:18:27.015Z,47.38
2019-01-25T02:20:55.710Z,42.27
2019-01-25T02:23:24.349Z,53.48
2019-01-25T02:25:53.044Z,47.25
2019-01-25T02:28:21.757Z,44.83
2019-01-25T02:30:50.389Z,44.30
2019-01-25T02:33:19.087Z,49.30
2019-01-25T02:35:47.789Z,42.95
2019-01-25T02:38:16.394Z,49.18
2019-01-25T02:40:45.033Z,50.15
2019-01-25T02:43:13.648Z,46.13
2019-01-25T02:45:42.328Z,43.70
2019-01-25T02:48:11.030Z,43.65
2019-01-25T02:50:39.718Z,53.80
2019-01-25T02:53:08.344Z,45.30
2019-01-25T02:55:36.977Z,51.53
2019-01-25T02:58:05.991Z,53.75
2019-01-25T03:00:34.697Z,54.05
2019-01-25T03:03:03.342Z,49.42
2019-01-25T03:05:31.995Z,45.35
2019-01-25T03:08:00.706Z,49.98
2019-01-25T03:10:29.670Z,51.48
2019-01-25T03:12:59.852Z,48.68
2019-01-25T03:15:28.513Z,49.30
2019-01-25T03:17:57.211Z,49.85
2019-01-25T03:20:25.960Z,45.43
2019-01-25T03:22:54.642Z,47.78
2019-01-25T03:25:25.518Z,52.65
2019-01-25T03:28:13.322Z,46.63
2019-01-25T03:30:41.967Z,52.45
2019-01-25T03:33:10.599Z,60.63
2019-01-25T03:35:39.273Z,48.08
2019-01-25T03:38:07.915Z,49.30
2019-01-25T03:40:36.562Z,50.75
2019-01-25T03:43:05.251Z,47.55
2019-01-25T03:45:33.877Z,51.30
2019-01-25T03:48:02.655Z,47.23
2019-01-25T03:51:11.085Z,51.75
2019-01-25T03:53:39.723Z,51.80
2019-01-25T03:56:08.481Z,50.98
2019-01-25T03:58:37.090Z,54.58
2019-01-25T04:01:05.834Z,51.65
2019-01-25T04:03:34.592Z,54.65
2019-01-25T04:06:03.333Z,55.15
2019-01-25T04:08:32.060Z,53.10
2019-01-25T04:11:03.953Z,57.55
2019-01-25T04:13:31.157Z,53.17
2019-01-25T04:15:59.873Z,48.73
2019-01-25T04:18:28.499Z,51.65
2019-01-25T04:20:57.289Z,53.30
2019-01-25T04:23:26.005Z,51.48
2019-01-25T04:25:54.647Z,54.15
2019-01-25T04:28:23.272Z,61.40
2019-01-25T04:30:52.097Z,51.13
2019-01-25T04:33:20.815Z,58.17
2019-01-25T04:35:49.539Z,50.98
2019-01-25T04:38:18.160Z,60.88
2019-01-25T04:40:46.881Z,54.93
2019-01-25T04:43:15.607Z,52.30
2019-01-25T04:45:44.229Z,54.27
2019-01-25T04:48:32.076Z,51.48
2019-01-25T04:51:40.547Z,52.90
2019-01-25T04:54:09.289Z,50.78
2019-01-25T04:56:38.778Z,62.83
2019-01-25T04:59:07.395Z,56.63
2019-01-25T05:01:36.166Z,58.92
2019-01-25T05:04:04.985Z,55.55
2019-01-25T05:06:33.620Z,52.08
2019-01-25T05:09:02.241Z,55.95
2019-01-25T05:11:30.913Z,63.23
2019-01-25T05:14:18.787Z,53.65
2019-01-25T05:16:47.436Z,61.02
2019-01-25T05:19:16.079Z,56.33
2019-01-25T05:21:44.720Z,56.50
2019-01-25T05:24:13.415Z,51.50
2019-01-25T05:26:42.040Z,59.30
2019-01-25T05:29:10.657Z,52.90
2019-01-25T05:31:39.449Z,55.23
2019-01-25T05:34:08.078Z,60.88
2019-01-25T05:36:36.841Z,71.95
2019-01-25T05:39:08.161Z,61.58
2019-01-25T05:41:36.804Z,68.28
2019-01-25T05:44:05.749Z,63.60
2019-01-25T05:46:34.354Z,55.58
2019-01-25T05:49:03.005Z,61.15
2019-01-25T05:51:33.717Z,66.92
2019-01-25T05:54:02.143Z,59.63
2019-01-25T05:56:30.808Z,60.80
2019-01-25T05:58:59.429Z,63.80
2019-01-25T06:01:28.070Z,65.92
2019-01-25T06:03:56.760Z,60.63
2019-01-25T06:06:25.407Z,59.98
2019-01-25T06:08:54.043Z,59.65
2019-01-25T06:11:22.679Z,61.68
2019-01-25T06:13:51.326Z,70.37
2019-01-25T06:16:20.006Z,63.42
2019-01-25T06:18:48.790Z,58.05
2019-01-25T06:21:17.450Z,63.98
2019-01-25T06:23:46.083Z,71.35
2019-01-25T06:26:54.526Z,62.08
2019-01-25T06:29:23.200Z,63.28
2019-01-25T06:31:51.920Z,62.60
2019-01-25T06:34:20.549Z,59.77
2019-01-25T06:36:49.190Z,66.40
2019-01-25T06:39:17.823Z,65.45
2019-01-25T06:41:46.439Z,64.03
2019-01-25T06:44:15.096Z,60.98
2019-01-25T06:46:43.719Z,60.60
2019-01-25T06:49:12.364Z,65.10
2019-01-25T06:51:41.012Z,63.23
2019-01-25T06:54:09.668Z,67.53
2019-01-25T06:56:38.296Z,65.55
2019-01-25T06:59:25.931Z,61.53
2019-01-25T07:02:07.509Z,58.48
2019-01-25T07:04:36.152Z,66.25
2019-01-25T07:09:54.761Z,67.05
2019-01-25T07:12:23.426Z,64.12
2019-01-25T07:14:52.123Z,65.92
2019-01-25T07:20:12.212Z,56.13
2019-01-25T07:22:40.882Z,70.70
2019-01-25T07:25:10.245Z,61.85
2019-01-25T07:27:38.958Z,64.55
2019-01-25T07:30:09.341Z,70.95
2019-01-25T07:32:37.948Z,65.45
2019-01-25T07:35:07.333Z,56.75
2019-01-25T07:37:36.040Z,65.30
2019-01-25T07:40:44.893Z,75.35
2019-01-25T07:43:13.493Z,69.70
2019-01-25T07:45:42.244Z,74.07
2019-01-25T07:48:10.905Z,74.50
2019-01-25T07:50:39.675Z,72.50
2019-01-25T07:53:08.345Z,80.55
2019-01-25T07:55:37.073Z,74.20
2019-01-25T07:58:05.794Z,69.30
2019-01-25T08:00:34.694Z,73.80
2019-01-25T08:03:03.407Z,68.02
2019-01-25T08:05:32.122Z,76.82
2019-01-25T08:08:00.807Z,75.03
2019-01-25T08:10:29.445Z,68.87
2019-01-25T08:12:58.173Z,73.70
2019-01-25T08:15:27.032Z,69.50
2019-01-25T08:17:55.712Z,60.70
2019-01-25T08:20:24.506Z,76.75
2019-01-25T08:22:53.270Z,74.15
2019-01-25T08:25:22.042Z,70.85
2019-01-25T08:27:50.733Z,81.02
2019-01-25T08:30:59.276Z,73.92
2019-01-25T08:33:27.926Z,84.52
2019-01-25T08:35:56.769Z,91.70
2019-01-25T08:38:25.526Z,73.90
2019-01-25T08:40:54.748Z,84.13
2019-01-25T08:43:24.653Z,80.95
2019-01-25T08:45:53.425Z,87.42
2019-01-25T08:48:22.149Z,77.32
2019-01-25T08:50:50.814Z,80.77
2019-01-25T08:53:19.477Z,75.70
2019-01-25T08:55:48.139Z,79.45
2019-01-25T08:58:16.742Z,87.42
2019-01-25T09:00:45.394Z,74.55
2019-01-25T09:03:14.083Z,75.70
2019-01-25T09:05:42.739Z,89.22
2019-01-25T09:08:11.487Z,76.60
2019-01-25T09:10:40.108Z,73.35
2019-01-25T09:13:08.844Z,78.67
2019-01-25T09:15:38.455Z,82.67
2019-01-25T09:20:41.237Z,87.30
2019-01-25T09:23:09.941Z,95.35
2019-01-25T09:25:38.677Z,77.20
2019-01-25T09:28:07.398Z,87.42
2019-01-25T09:30:36.019Z,80.25
2019-01-25T09:33:04.811Z,86.02
2019-01-25T09:35:33.441Z,87.27
2019-01-25T09:38:02.243Z,82.27
2019-01-25T09:40:30.944Z,75.45
2019-01-25T09:42:59.645Z,88.15
2019-01-25T09:45:28.371Z,79.20
2019-01-25T09:47:57.010Z,85.05
2019-01-25T09:50:25.744Z,88.75
2019-01-25T09:52:54.379Z,78.25
2019-01-25T09:55:24.383Z,85.40
2019-01-25T09:57:54.976Z,97.02
2019-01-25T10:00:26.814Z,81.72
2019-01-25T10:02:55.514Z,80.83
2019-01-25T10:05:24.269Z,80.47
2019-01-25T10:07:52.931Z,87.53
2019-01-25T10:10:21.755Z,88.75
2019-01-25T10:12:50.402Z,82.85
2019-01-25T10:15:21.010Z,75.80
2019-01-25T10:17:49.639Z,90.65
2019-01-25T10:23:32.106Z,91.20
2019-01-25T10:26:00.858Z,94.85
2019-01-25T10:28:29.642Z,91.05
2019-01-25T10:30:58.411Z,91.90
2019-01-25T10:33:27.082Z,89.37
2019-01-25T10:35:55.736Z,95.45
2019-01-25T10:38:24.361Z,88.92
2019-01-25T10:40:52.991Z,86.17
2019-01-25T10:43:21.632Z,80.80
2019-01-25T10:45:50.286Z,84.77
2019-01-25T10:48:18.987Z,90.70
2019-01-25T10:50:47.696Z,92.55
2019-01-25T10:53:16.406Z,87.92
2019-01-25T10:55:45.124Z,97.47
2019-01-25T10:58:13.846Z,101.02
2019-01-25T11:00:42.630Z,89.40
2019-01-25T11:03:11.397Z,93.17
2019-01-25T11:05:40.055Z,91.60
2019-01-25T11:08:08.687Z,94.67
2019-01-25T11:10:37.432Z,92.72
2019-01-25T11:13:06.138Z,92.92
2019-01-25T11:15:34.902Z,91.17
2019-01-25T11:18:03.665Z,88.75
2019-01-25T11:20:32.353Z,102.90
2019-01-25T11:23:00.984Z,93.67
2019-01-25T11:25:32.358Z,93.47
2019-01-25T11:28:00.967Z,83.47
2019-01-25T11:30:29.679Z,93.50
2019-01-25T11:32:58.432Z,91.40
2019-01-25T11:35:27.125Z,104.40
2019-01-25T11:37:55.847Z,93.52
2019-01-25T11:40:45.108Z,85.50
2019-01-25T11:43:13.779Z,89.97
2019-01-25T11:45:42.814Z,94.45
2019-01-25T11:48:13.875Z,88.80
2019-01-25T11:50:42.560Z,95.45
2019-01-25T11:53:11.285Z,91.25
2019-01-25T11:55:40.028Z,93.20
2019-01-25T11:58:08.748Z,94.05
2019-01-25T12:03:27.086Z,79.80
2019-01-25T12:05:56.906Z,86.72
2019-01-25T12:08:26.148Z,87.72
2019-01-25T12:10:54.888Z,88.60
2019-01-25T12:13:23.661Z,87.20
2019-01-25T12:15:52.342Z,83.90
2019-01-25T12:18:21.151Z,93.10
2019-01-25T12:20:49.757Z,91.45
2019-01-25T12:23:18.517Z,99.58
2019-01-25T12:25:47.207Z,88.60
2019-01-25T12:28:15.864Z,94.00
2019-01-25T12:30:44.492Z,97.33
2019-01-25T12:33:13.135Z,78.15
2019-01-25T12:35:43.509Z,101.53
2019-01-25T12:38:12.308Z,92.55
2019-01-25T12:40:42.318Z,97.62
2019-01-25T12:43:11.514Z,103.05
2019-01-25T12:45:40.200Z,89.97
2019-01-25T12:48:09.020Z,83.67
2019-01-25T12:50:59.225Z,90.77
2019-01-25T12:53:27.877Z,86.95
2019-01-25T12:55:56.584Z,85.55
2019-01-25T12:58:25.218Z,94.45
2019-01-25T13:00:53.835Z,95.97
2019-01-25T13:03:22.555Z,85.62
2019-01-25T13:05:51.241Z,96.10
2019-01-25T13:08:19.998Z,99.75
2019-01-25T13:10:48.619Z,87.25
2019-01-25T13:13:17.372Z,89.35
2019-01-25T13:15:45.993Z,97.92
2019-01-25T13:18:14.638Z,101.60
2019-01-25T13:20:43.881Z,100.80
2019-01-25T13:23:12.592Z,97.20
2019-01-25T13:25:41.422Z,90.00
2019-01-25T13:28:10.132Z,92.92
2019-01-25T13:30:38.857Z,87.30
2019-01-25T13:33:07.605Z,89.90
2019-01-25T13:35:36.323Z,96.20
2019-01-25T13:38:44.775Z,88.30
2019-01-25T13:41:13.474Z,94.50
2019-01-25T13:43:42.116Z,94.55
2019-01-25T13:46:10.747Z,100.02
2019-01-25T13:48:39.548Z,101.07
2019-01-25T13:51:08.247Z,107.10
2019-01-25T13:53:56.281Z,87.25
2019-01-25T13:56:24.914Z,86.28
2019-01-25T13:58:53.819Z,96.67
2019-01-25T14:01:22.444Z,92.65
2019-01-25T14:03:51.070Z,95.22
2019-01-25T14:06:19.809Z,92.02
2019-01-25T14:08:48.546Z,91.53
2019-01-25T14:11:17.170Z,85.92
2019-01-25T14:13:46.968Z,93.27
2019-01-25T14:16:35.491Z,78.17
2019-01-25T14:19:04.382Z,84.92
2019-01-25T14:21:33.014Z,86.05
2019-01-25T14:24:01.630Z,84.97
2019-01-25T14:26:30.289Z,84.35
2019-01-25T14:28:58.907Z,84.47
2019-01-25T14:31:27.533Z,86.53
2019-01-25T14:33:56.151Z,80.28
2019-01-25T14:36:24.927Z,89.20
2019-01-25T14:38:53.540Z,83.07
2019-01-25T14:41:22.193Z,83.85
2019-01-25T14:43:54.582Z,84.60
2019-01-25T14:46:21.156Z,84.00
2019-01-25T14:48:49.815Z,78.75
2019-01-25T14:51:18.533Z,81.82
2019-01-25T14:53:50.920Z,71.67
2019-01-25T14:56:17.600Z,83.37
2019-01-25T14:58:46.334Z,71.77
2019-01-25T15:01:14.955Z,81.20
2019-01-25T15:03:43.610Z,79.58
2019-01-25T15:06:12.300Z,71.85
2019-01-25T15:08:41.068Z,74.62
2019-01-25T15:11:17.035Z,70.40
2019-01-25T15:13:45.663Z,74.95
2019-01-25T15:16:14.274Z,68.35
2019-01-25T15:18:42.977Z,67.30
2019-01-25T15:21:11.669Z,76.33
2019-01-25T15:23:40.355Z,75.85
2019-01-25T15:26:08.984Z,64.85
2019-01-25T15:28:37.637Z,81.65
2019-01-25T15:31:06.342Z,69.15
2019-01-25T15:33:35.072Z,67.25
2019-01-25T15:36:03.881Z,79.53
2019-01-25T15:38:32.518Z,68.15
2019-01-25T15:41:20.364Z,64.90
2019-01-25T15:43:49.000Z,74.37
2019-01-25T15:46:17.717Z,64.15
2019-01-25T15:48:46.338Z,64.15
2019-01-25T15:51:15.027Z,63.42
2019-01-25T15:53:43.721Z,63.45
2019-01-25T15:56:12.452Z,68.95
2019-01-25T15:58:41.155Z,63.38
2019-01-25T16:01:09.910Z,58.68
2019-01-25T16:03:38.541Z,58.55
2019-01-25T16:06:07.253Z,63.65
2019-01-25T16:08:35.877Z,59.60
2019-01-25T16:11:04.562Z,50.63
2019-01-25T16:13:33.245Z,48.10
2019-01-25T16:16:01.941Z,52.08
2019-01-25T16:18:30.581Z,50.80
2019-01-25T16:20:59.226Z,62.20
2019-01-25T16:23:47.086Z,53.52
2019-01-25T16:26:15.728Z,49.63
2019-01-25T16:28:44.352Z,45.45
2019-01-25T16:31:12.964Z,50.92
2019-01-25T16:33:41.593Z,33.88
2019-01-25T16:36:10.210Z,29.15
2019-01-25T16:38:38.862Z,31.52
2019-01-25T16:41:07.473Z,30.35
2019-01-25T16:43:36.190Z,30.40
2019-01-25T16:46:04.995Z,27.45
2019-01-25T16:48:33.631Z,23.05
2019-01-25T16:51:02.256Z,28.73
2019-01-25T16:53:30.911Z,29.48
2019-01-25T16:55:59.543Z,21.48
2019-01-25T16:58:28.257Z,25.12
2019-01-25T17:00:56.890Z,23.90
2019-01-25T17:03:25.504Z,22.73
2019-01-25T17:05:54.272Z,24.15
2019-01-25T17:08:22.988Z,20.65
2019-01-25T17:10:51.624Z,22.30
2019-01-25T17:13:20.382Z,22.15
2019-01-25T17:15:49.018Z,23.55
2019-01-25T17:18:37.044Z,19.67
2019-01-25T17:21:06.114Z,27.73
2019-01-25T17:23:37.489Z,30.90
2019-01-25T17:29:08.706Z,62.53
2019-01-25T17:31:37.877Z,45.35
2019-01-25T17:36:56.969Z,37.65
2019-01-25T17:39:45.538Z,39.15
2019-01-25T17:42:14.664Z,43.95
2019-01-25T17:47:26.980Z,40.03
2019-01-25T17:49:55.766Z,41.70
2019-01-25T17:52:24.663Z,36.25
2019-01-25T17:54:53.786Z,40.67
2019-01-25T17:57:22.667Z,41.65
2019-01-25T18:00:39.544Z,37.93
2019-01-25T18:03:09.757Z,39.78
2019-01-25T18:05:46.412Z,40.10
2019-01-25T18:21:05.130Z,36.68
2019-01-25T18:24:13.136Z,39.67
2019-01-25T18:29:54.031Z,40.40
2019-01-25T18:32:34.706Z,44.38
2019-01-25T18:35:40.835Z,43.68
2019-01-25T18:38:09.778Z,48.35
2019-01-25T18:40:38.707Z,47.23
2019-01-25T18:43:07.777Z,50.28
2019-01-25T18:45:59.106Z,38.85
2019-01-25T18:51:19.166Z,45.60
2019-01-25T18:53:48.766Z,50.85
2019-01-25T18:56:21.940Z,45.90
2019-01-25T19:02:43.647Z,44.98
2019-01-25T19:05:12.773Z,41.53
2019-01-25T19:10:44.146Z,49.65
2019-01-25T19:16:29.191Z,48.65
2019-01-25T19:18:58.171Z,40.15
2019-01-25T19:36:36.953Z,48.25
2019-01-25T19:42:27.402Z,50.23
2019-01-25T19:44:56.540Z,51.42
2019-01-25T19:48:05.355Z,49.30
2019-01-25T19:59:35.629Z,58.73
2019-01-25T20:05:00.384Z,53.05
2019-01-25T20:07:31.586Z,59.95
2019-01-25T20:19:02.829Z,54.75
2019-01-25T20:21:31.711Z,61.83
2019-01-25T20:24:00.583Z,57.35
2019-01-25T20:29:30.805Z,57.75
2019-01-25T20:34:51.307Z,59.03
2019-01-25T20:37:20.446Z,59.93
2019-01-25T20:39:49.384Z,56.53
2019-01-25T20:42:19.108Z,52.95
2019-01-25T20:44:48.111Z,65.42
2019-01-25T20:47:17.130Z,65.08
2019-01-25T20:52:20.929Z,59.23
2019-01-25T20:55:09.594Z,64.15
2019-01-25T20:57:40.989Z,60.40
2019-01-25T21:00:13.402Z,66.72
2019-01-25T21:02:42.329Z,77.27
2019-01-25T21:05:11.298Z,64.62
2019-01-25T21:07:59.573Z,64.58
2019-01-25T21:13:40.293Z,65.60
2019-01-25T21:16:09.523Z,58.52
2019-01-25T21:18:39.276Z,64.25
2019-01-25T21:21:08.919Z,68.97
2019-01-25T21:23:37.857Z,69.35
2019-01-25T21:26:07.323Z,66.10
2019-01-25T21:28:36.479Z,63.20
2019-01-25T21:31:06.194Z,67.17
2019-01-25T21:33:50.130Z,59.63
2019-01-25T21:39:13.157Z,62.85
2019-01-25T21:44:56.321Z,62.73
2019-01-25T21:47:26.070Z,63.68
2019-01-25T21:49:57.192Z,66.37
2019-01-25T21:55:39.365Z,59.40
2019-01-25T21:57:56.101Z,59.25
2019-01-25T22:01:04.024Z,73.67
2019-01-25T22:03:36.444Z,65.35
2019-01-25T22:14:28.353Z,69.27
2019-01-25T22:21:37.542Z,62.17
2019-01-25T22:23:52.850Z,61.28
2019-01-25T22:31:34.446Z,58.35
2019-01-25T22:34:06.324Z,70.55
2019-01-25T22:36:35.757Z,60.00
2019-01-25T22:42:06.332Z,60.10
2019-01-25T22:44:34.963Z,60.90
2019-01-25T22:47:03.705Z,59.42
2019-01-25T22:49:32.440Z,58.30
2019-01-25T22:52:01.092Z,62.27
2019-01-25T22:54:29.743Z,63.75
2019-01-25T22:56:58.447Z,63.85
2019-01-25T22:59:27.088Z,79.10
2019-01-25T23:01:55.715Z,62.35
2019-01-25T23:05:02.827Z,64.15
2019-01-25T23:07:32.713Z,64.37
2019-01-25T23:10:21.235Z,54.05
2019-01-25T23:12:49.876Z,69.58
2019-01-25T23:15:18.937Z,63.17
2019-01-25T23:17:47.670Z,66.95
2019-01-25T23:20:16.359Z,63.25
2019-01-25T23:22:45.073Z,67.65
2019-01-25T23:25:13.921Z,68.50
2019-01-25T23:27:42.559Z,66.30
2019-01-25T23:30:30.447Z,60.90
2019-01-25T23:32:59.163Z,58.13
2019-01-25T23:35:27.896Z,55.00
2019-01-25T23:37:56.528Z,60.38
2019-01-25T23:40:25.146Z,56.98
2019-01-25T23:42:53.793Z,65.65
2019-01-25T23:45:22.469Z,60.58
2019-01-25T23:47:51.169Z,62.38
2019-01-25T23:50:19.861Z,59.30
2019-01-25T23:52:48.511Z,60.03
2019-01-25T23:55:17.307Z,59.53
2019-01-25T23:57:45.898Z,51.23
